createdAt,value
2023-04-23T00:01:12.544Z,4.20
2023-04-23T00:02:47.078Z,4.70
2023-04-23T00:04:23.695Z,5.05
2023-04-23T00:05:59.411Z,5.32
2023-04-23T00:07:34.232Z,5.00
2023-04-23T00:09:07.726Z,4.05
2023-04-23T00:10:40.197Z,4.22
2023-04-23T00:12:15.539Z,4.38
2023-04-23T00:13:49.708Z,4.03
2023-04-23T00:15:23.203Z,5.18
2023-04-23T00:16:56.837Z,5.82
2023-04-23T00:18:30.353Z,5.10
2023-04-23T00:20:03.876Z,5.15
2023-04-23T00:21:37.020Z,4.95
2023-04-23T00:23:10.317Z,5.00
2023-04-23T00:24:43.574Z,5.57
2023-04-23T00:26:18.657Z,5.35
2023-04-23T00:27:53.126Z,8.23
2023-04-23T00:29:26.312Z,7.22
2023-04-23T00:30:59.479Z,7.10
2023-04-23T00:32:33.274Z,9.00
2023-04-23T00:34:07.050Z,9.48
2023-04-23T00:35:40.292Z,8.95
2023-04-23T00:37:13.367Z,8.48
2023-04-23T00:38:46.931Z,20.20
2023-04-23T00:40:20.562Z,10.77
2023-04-23T00:41:53.665Z,12.80
2023-04-23T00:43:28.663Z,12.70
2023-04-23T00:45:02.905Z,12.93
2023-04-23T00:46:36.817Z,8.15
2023-04-23T00:48:10.507Z,7.47
2023-04-23T00:49:44.318Z,9.48
2023-04-23T00:51:17.914Z,7.57
2023-04-23T00:52:51.087Z,7.07
2023-04-23T00:54:23.331Z,5.65
2023-04-23T00:55:56.633Z,4.80
2023-04-23T00:57:30.691Z,4.78
2023-04-23T00:59:05.391Z,6.72
2023-04-23T01:00:46.356Z,9.80
2023-04-23T01:02:20.540Z,9.40
2023-04-23T01:03:54.182Z,10.43
2023-04-23T01:05:27.634Z,6.47
2023-04-23T01:07:01.753Z,6.75
2023-04-23T01:08:36.060Z,7.95
2023-04-23T01:10:11.331Z,6.43
2023-04-23T01:11:44.320Z,5.82
2023-04-23T01:13:17.960Z,5.05
2023-04-23T01:14:53.308Z,4.85
2023-04-23T01:16:26.795Z,5.40
2023-04-23T01:18:00.256Z,5.78
2023-04-23T01:19:33.662Z,5.38
2023-04-23T01:21:07.302Z,4.22
2023-04-23T01:22:42.336Z,4.13
2023-04-23T01:24:14.594Z,4.32
2023-04-23T01:25:47.920Z,4.25
2023-04-23T01:27:20.409Z,4.15
2023-04-23T01:28:54.243Z,5.28
2023-04-23T01:30:28.504Z,4.43
2023-04-23T01:32:01.842Z,4.15
2023-04-23T01:33:36.013Z,4.40
2023-04-23T01:35:10.143Z,4.00
2023-04-23T01:36:44.801Z,4.68
2023-04-23T01:38:20.957Z,3.90
2023-04-23T01:39:54.368Z,4.70
2023-04-23T01:41:28.497Z,4.70
2023-04-23T01:43:01.856Z,4.60
2023-04-23T01:44:35.230Z,5.10
2023-04-23T01:46:07.502Z,4.95
2023-04-23T01:47:42.194Z,4.97
2023-04-23T01:49:15.535Z,6.65
2023-04-23T01:50:49.345Z,5.38
2023-04-23T01:52:22.692Z,5.28
2023-04-23T01:53:57.762Z,5.65
2023-04-23T01:55:30.365Z,6.97
2023-04-23T01:57:03.973Z,7.07
2023-04-23T01:58:36.379Z,6.38
2023-04-23T02:00:11.959Z,5.38
2023-04-23T02:01:45.611Z,5.13
2023-04-23T02:03:19.055Z,4.95
2023-04-23T02:04:53.467Z,4.60
2023-04-23T02:06:26.985Z,5.22
2023-04-23T02:08:00.379Z,4.32
2023-04-23T02:09:34.886Z,4.45
2023-04-23T02:11:08.052Z,4.40
2023-04-23T02:12:41.057Z,4.70
2023-04-23T02:14:15.832Z,4.55
2023-04-23T02:15:47.969Z,4.50
2023-04-23T02:17:23.115Z,5.43
2023-04-23T02:18:55.730Z,6.47
2023-04-23T02:20:29.041Z,6.32
2023-04-23T02:22:02.836Z,6.65
2023-04-23T02:23:35.993Z,7.18
2023-04-23T02:25:11.673Z,6.18
2023-04-23T02:26:44.768Z,5.80
2023-04-23T02:28:18.015Z,5.70
2023-04-23T02:29:50.237Z,5.25
2023-04-23T02:31:23.712Z,5.60
2023-04-23T02:32:55.907Z,5.78
2023-04-23T02:34:29.137Z,6.20
2023-04-23T02:36:02.387Z,5.82
2023-04-23T02:37:37.186Z,6.55
2023-04-23T02:39:09.507Z,5.60
2023-04-23T02:40:44.389Z,6.22
2023-04-23T02:42:17.484Z,5.97
2023-04-23T02:43:50.790Z,6.82
2023-04-23T02:45:23.965Z,6.88
2023-04-23T02:46:57.455Z,6.90
2023-04-23T02:48:29.913Z,6.00
2023-04-23T02:50:06.137Z,6.13
2023-04-23T02:51:39.390Z,5.72
2023-04-23T02:53:12.495Z,5.28
2023-04-23T02:54:46.131Z,4.32
2023-04-23T02:56:21.154Z,5.85
2023-04-23T02:57:54.374Z,5.20
2023-04-23T02:59:27.075Z,4.53
2023-04-23T03:01:00.924Z,5.70
2023-04-23T03:02:33.698Z,5.68
2023-04-23T03:04:07.654Z,4.72
2023-04-23T03:05:41.003Z,5.15
2023-04-23T03:07:17.448Z,5.57
2023-04-23T03:08:51.047Z,5.72
2023-04-23T03:10:24.202Z,4.80
2023-04-23T03:11:58.797Z,4.75
2023-04-23T03:13:31.087Z,5.90
2023-04-23T03:15:04.673Z,5.35
2023-04-23T03:16:39.976Z,4.47
2023-04-23T03:18:12.473Z,5.15
2023-04-23T03:19:46.034Z,5.32
2023-04-23T03:21:19.129Z,4.38
2023-04-23T03:22:52.391Z,4.32
2023-04-23T03:24:26.150Z,4.75
2023-04-23T03:25:59.325Z,5.28
2023-04-23T03:27:33.241Z,5.60
2023-04-23T03:29:07.468Z,6.47
2023-04-23T03:30:41.261Z,5.45
2023-04-23T03:32:14.882Z,5.22
2023-04-23T03:33:48.751Z,5.60
2023-04-23T03:35:28.159Z,6.70
2023-04-23T03:37:03.734Z,7.90
2023-04-23T03:38:42.646Z,6.70
2023-04-23T03:40:16.382Z,6.07
2023-04-23T03:41:52.274Z,7.15
2023-04-23T03:43:30.631Z,7.55
2023-04-23T03:45:09.611Z,7.32
2023-04-23T03:46:43.028Z,7.25
2023-04-23T03:48:17.127Z,7.85
2023-04-23T03:49:50.999Z,8.13
2023-04-23T03:51:24.354Z,9.23
2023-04-23T03:52:57.601Z,7.40
2023-04-23T03:54:51.073Z,15.45
2023-04-23T03:56:27.058Z,11.32
2023-04-23T03:58:17.649Z,8.00
2023-04-23T03:59:53.686Z,9.60
2023-04-23T04:01:26.971Z,8.70
2023-04-23T04:03:00.849Z,8.23
2023-04-23T04:04:35.560Z,10.13
2023-04-23T04:06:09.383Z,6.80
2023-04-23T04:07:42.513Z,7.00
2023-04-23T04:09:15.853Z,6.53
2023-04-23T04:10:49.295Z,7.10
2023-04-23T04:12:22.611Z,6.53
2023-04-23T04:13:54.881Z,6.25
2023-04-23T04:15:29.418Z,7.28
2023-04-23T04:17:01.587Z,6.50
2023-04-23T04:18:34.880Z,7.43
2023-04-23T04:20:09.588Z,8.70
2023-04-23T04:21:42.818Z,9.00
2023-04-23T04:23:16.185Z,8.60
2023-04-23T04:24:48.349Z,7.97
2023-04-23T04:26:21.531Z,7.05
2023-04-23T04:27:54.726Z,6.68
2023-04-23T04:29:28.533Z,5.78
2023-04-23T04:31:03.397Z,6.18
2023-04-23T04:32:38.866Z,6.07
2023-04-23T04:34:14.682Z,5.40
2023-04-23T04:35:49.241Z,6.15
2023-04-23T04:37:21.865Z,6.20
2023-04-23T04:38:56.140Z,6.07
2023-04-23T04:40:30.503Z,10.02
2023-04-23T04:42:04.221Z,10.73
2023-04-23T04:43:37.741Z,9.30
2023-04-23T04:45:11.722Z,9.70
2023-04-23T04:46:46.324Z,9.85
2023-04-23T04:48:19.769Z,10.07
2023-04-23T04:49:52.055Z,9.27
2023-04-23T04:51:25.203Z,8.98
2023-04-23T04:52:58.360Z,8.70
2023-04-23T04:54:31.619Z,8.57
2023-04-23T04:56:05.057Z,9.88
2023-04-23T04:57:38.169Z,11.13
2023-04-23T04:59:11.471Z,9.65
2023-04-23T05:00:44.897Z,9.27
2023-04-23T05:02:18.799Z,9.85
2023-04-23T05:03:52.193Z,8.50
2023-04-23T05:05:26.834Z,9.70
2023-04-23T05:07:00.127Z,9.20
2023-04-23T05:08:33.322Z,8.32
2023-04-23T05:10:07.350Z,10.27
2023-04-23T05:11:41.275Z,11.70
2023-04-23T05:13:14.639Z,10.70
2023-04-23T05:14:47.808Z,11.18
2023-04-23T05:16:21.335Z,11.70
2023-04-23T05:17:55.938Z,10.75
2023-04-23T05:19:29.348Z,11.30
2023-04-23T05:21:02.638Z,12.02
2023-04-23T05:22:35.964Z,10.45
2023-04-23T05:24:09.242Z,9.60
2023-04-23T05:25:42.623Z,10.10
2023-04-23T05:27:15.924Z,17.25
2023-04-23T05:28:49.074Z,10.73
2023-04-23T05:30:22.378Z,8.70
2023-04-23T05:31:55.685Z,10.80
2023-04-23T05:33:39.130Z,8.77
2023-04-23T05:35:16.512Z,10.48
2023-04-23T05:36:49.642Z,9.70
2023-04-23T05:38:22.962Z,8.07
2023-04-23T05:39:56.965Z,8.98
2023-04-23T05:41:30.343Z,9.00
2023-04-23T05:43:02.717Z,8.75
2023-04-23T05:44:35.984Z,8.88
2023-04-23T05:46:09.292Z,9.63
2023-04-23T05:47:42.514Z,10.82
2023-04-23T05:49:17.077Z,10.75
2023-04-23T05:50:50.559Z,10.90
2023-04-23T05:52:23.146Z,11.02
2023-04-23T05:53:56.400Z,10.57
2023-04-23T05:55:30.003Z,11.15
2023-04-23T05:57:04.054Z,11.10
2023-04-23T05:58:38.970Z,11.35
2023-04-23T06:00:13.119Z,10.82
2023-04-23T06:01:46.451Z,9.68
2023-04-23T06:03:20.134Z,10.23
2023-04-23T06:04:55.320Z,11.57
2023-04-23T06:06:28.803Z,9.30
2023-04-23T06:08:01.935Z,10.15
2023-04-23T06:09:35.232Z,10.48
2023-04-23T06:11:08.927Z,12.25
2023-04-23T06:12:42.374Z,11.65
2023-04-23T06:14:15.711Z,12.32
2023-04-23T06:15:49.022Z,12.60
2023-04-23T06:17:23.096Z,13.20
2023-04-23T06:18:56.336Z,11.98
2023-04-23T06:20:31.668Z,12.60
2023-04-23T06:22:04.070Z,11.73
2023-04-23T06:23:37.511Z,14.35
2023-04-23T06:25:11.254Z,12.90
2023-04-23T06:26:44.356Z,12.57
2023-04-23T06:28:22.248Z,10.88
2023-04-23T06:30:18.176Z,10.65
2023-04-23T06:31:51.790Z,10.07
2023-04-23T06:33:25.176Z,10.68
2023-04-23T06:35:01.896Z,9.88
2023-04-23T06:36:37.071Z,8.43
2023-04-23T06:38:10.301Z,6.50
2023-04-23T06:39:43.548Z,7.85
2023-04-23T06:41:16.923Z,6.75
2023-04-23T06:42:50.317Z,9.38
2023-04-23T06:44:40.965Z,8.88
2023-04-23T06:46:14.311Z,8.75
2023-04-23T06:47:49.301Z,9.38
2023-04-23T06:49:23.238Z,7.85
2023-04-23T06:50:56.362Z,9.30
2023-04-23T06:52:30.976Z,8.93
2023-04-23T06:54:04.202Z,8.18
2023-04-23T06:55:37.595Z,8.27
2023-04-23T06:57:11.207Z,9.20
2023-04-23T06:58:44.416Z,6.15
2023-04-23T07:00:24.086Z,5.93
2023-04-23T07:01:57.755Z,4.88
2023-04-23T07:03:31.400Z,5.82
2023-04-23T07:05:05.261Z,4.05
2023-04-23T07:06:38.407Z,5.18
2023-04-23T07:08:13.643Z,3.45
2023-04-23T07:09:48.418Z,3.85
2023-04-23T07:11:22.022Z,3.30
2023-04-23T07:12:55.215Z,3.90
2023-04-23T07:14:28.517Z,4.50
2023-04-23T07:16:01.777Z,4.65
2023-04-23T07:17:35.056Z,4.75
2023-04-23T07:19:08.229Z,5.07
2023-04-23T07:20:42.037Z,5.38
2023-04-23T07:22:15.195Z,9.13
2023-04-23T07:23:50.216Z,5.72
2023-04-23T07:25:24.824Z,4.70
2023-04-23T07:26:59.283Z,5.45
2023-04-23T07:28:32.990Z,6.00
2023-04-23T07:30:08.272Z,5.80
2023-04-23T07:31:42.640Z,5.93
2023-04-23T07:33:16.296Z,4.70
2023-04-23T07:34:49.516Z,4.40
2023-04-23T07:36:23.223Z,5.47
2023-04-23T07:37:58.037Z,4.88
2023-04-23T07:39:33.577Z,4.97
2023-04-23T07:41:07.119Z,4.82
2023-04-23T07:42:41.188Z,4.45
2023-04-23T07:44:14.909Z,4.88
2023-04-23T07:45:48.492Z,4.55
2023-04-23T07:47:22.121Z,4.28
2023-04-23T07:48:54.482Z,4.78
2023-04-23T07:50:28.259Z,3.65
2023-04-23T07:52:02.046Z,4.30
2023-04-23T07:53:36.557Z,4.25
2023-04-23T07:55:11.890Z,4.75
2023-04-23T07:56:46.686Z,4.25
2023-04-23T07:58:19.124Z,4.28
2023-04-23T07:59:52.557Z,4.43
2023-04-23T08:01:26.722Z,3.97
2023-04-23T08:03:00.678Z,4.35
2023-04-23T08:04:34.581Z,3.42
2023-04-23T08:06:08.345Z,2.90
2023-04-23T08:07:41.737Z,3.30
2023-04-23T08:09:15.057Z,2.72
2023-04-23T08:10:49.692Z,3.40
2023-04-23T08:12:23.065Z,2.95
2023-04-23T08:13:56.437Z,2.83
2023-04-23T08:15:29.590Z,3.30
2023-04-23T08:17:01.858Z,2.88
2023-04-23T08:18:35.295Z,4.03
2023-04-23T08:20:09.781Z,3.47
2023-04-23T08:21:42.924Z,3.40
2023-04-23T08:23:16.379Z,3.83
2023-04-23T08:24:49.603Z,2.85
2023-04-23T08:26:24.754Z,2.67
2023-04-23T08:27:57.924Z,2.80
2023-04-23T08:29:31.183Z,2.63
2023-04-23T08:31:15.111Z,2.65
2023-04-23T08:32:56.596Z,2.75
2023-04-23T08:34:29.688Z,2.35
2023-04-23T08:36:03.113Z,2.10
2023-04-23T08:37:36.295Z,3.30
2023-04-23T08:39:09.806Z,2.80
2023-04-23T08:40:43.802Z,2.33
2023-04-23T08:42:26.195Z,2.40
2023-04-23T08:44:08.965Z,2.38
2023-04-23T08:45:42.868Z,2.72
2023-04-23T08:47:19.263Z,2.38
2023-04-23T08:48:54.777Z,2.40
2023-04-23T08:50:31.087Z,2.13
2023-04-23T08:52:18.461Z,2.40
2023-04-23T08:53:57.278Z,2.42
2023-04-23T08:55:30.762Z,1.85
2023-04-23T08:57:06.230Z,2.15
2023-04-23T08:58:41.847Z,1.48
2023-04-23T09:00:17.136Z,1.98
2023-04-23T09:01:51.257Z,2.17
2023-04-23T09:03:25.320Z,2.17
2023-04-23T09:04:58.897Z,2.20
2023-04-23T09:06:33.278Z,1.63
2023-04-23T09:08:07.081Z,1.55
2023-04-23T09:09:41.513Z,1.80
2023-04-23T09:11:16.801Z,1.80
2023-04-23T09:12:50.805Z,1.90
2023-04-23T09:14:26.798Z,1.50
2023-04-23T09:16:00.070Z,1.48
2023-04-23T09:17:36.537Z,2.42
2023-04-23T09:19:12.205Z,1.40
2023-04-23T09:20:45.858Z,1.60
2023-04-23T09:22:42.330Z,2.35
2023-04-23T09:24:18.029Z,1.70
2023-04-23T09:25:51.272Z,1.42
2023-04-23T09:27:26.422Z,1.52
2023-04-23T09:28:59.664Z,1.48
2023-04-23T09:30:33.136Z,1.35
2023-04-23T09:32:09.499Z,1.50
2023-04-23T09:33:42.934Z,1.25
2023-04-23T09:35:17.776Z,1.80
2023-04-23T09:36:52.641Z,1.40
2023-04-23T09:38:27.428Z,1.15
2023-04-23T09:40:01.063Z,1.40
2023-04-23T09:41:34.308Z,2.20
2023-04-23T09:43:11.437Z,1.73
2023-04-23T09:44:44.598Z,1.48
2023-04-23T09:46:17.835Z,1.40
2023-04-23T09:47:52.943Z,1.23
2023-04-23T09:49:26.301Z,1.23
2023-04-23T09:51:03.230Z,1.38
2023-04-23T09:52:41.083Z,1.50
2023-04-23T09:54:18.942Z,1.35
2023-04-23T09:55:54.340Z,1.40
2023-04-23T09:57:27.604Z,1.58
2023-04-23T09:59:01.148Z,1.58
2023-04-23T10:00:36.724Z,1.33
2023-04-23T10:02:10.893Z,1.85
2023-04-23T10:03:45.017Z,1.73
2023-04-23T10:05:23.504Z,1.60
2023-04-23T10:07:13.700Z,1.50
2023-04-23T10:08:51.339Z,1.30
2023-04-23T10:10:26.783Z,1.40
2023-04-23T10:12:02.409Z,1.20
2023-04-23T10:13:36.958Z,1.40
2023-04-23T10:15:11.584Z,1.90
2023-04-23T10:16:49.319Z,1.63
2023-04-23T10:18:24.796Z,1.70
2023-04-23T10:20:01.628Z,1.58
2023-04-23T10:21:50.029Z,1.60
2023-04-23T10:23:26.493Z,1.95
2023-04-23T10:25:02.140Z,1.65
2023-04-23T10:26:39.945Z,1.20
2023-04-23T10:28:15.413Z,1.38
2023-04-23T10:29:50.079Z,1.20
2023-04-23T10:31:23.857Z,2.33
2023-04-23T10:32:59.608Z,1.60
2023-04-23T10:34:33.916Z,1.15
2023-04-23T10:36:08.678Z,1.35
2023-04-23T10:37:42.994Z,1.42
2023-04-23T10:39:24.010Z,1.60
2023-04-23T10:41:03.156Z,1.83
2023-04-23T10:42:38.433Z,2.17
2023-04-23T10:44:15.871Z,2.03
2023-04-23T10:45:51.116Z,1.77
2023-04-23T10:47:24.383Z,1.58
2023-04-23T10:49:15.556Z,2.00
2023-04-23T10:51:08.175Z,1.70
2023-04-23T10:52:46.855Z,1.50
2023-04-23T10:54:21.364Z,1.38
2023-04-23T10:56:07.282Z,1.73
2023-04-23T10:57:59.226Z,2.20
2023-04-23T10:59:35.113Z,1.38
2023-04-23T11:01:08.237Z,1.50
2023-04-23T11:02:45.502Z,1.77
2023-04-23T11:04:24.034Z,1.58
2023-04-23T11:05:57.603Z,1.55
2023-04-23T11:07:33.286Z,1.23
2023-04-23T11:09:49.077Z,4.18
2023-04-23T11:11:39.871Z,1.60
2023-04-23T11:13:25.149Z,1.55
2023-04-23T11:15:00.295Z,1.50
2023-04-23T11:16:35.151Z,1.50
2023-04-23T11:18:08.884Z,1.75
2023-04-23T11:19:44.023Z,2.15
2023-04-23T11:21:17.526Z,1.90
2023-04-23T11:22:52.090Z,1.75
2023-04-23T11:24:24.591Z,1.48
2023-04-23T11:25:59.253Z,1.30
2023-04-23T11:27:32.663Z,1.58
2023-04-23T11:29:08.675Z,1.38
2023-04-23T11:30:42.054Z,1.10
2023-04-23T11:32:18.169Z,1.40
2023-04-23T11:33:51.499Z,1.45
2023-04-23T11:35:28.488Z,1.63
2023-04-23T11:37:02.461Z,1.17
2023-04-23T11:38:35.780Z,1.63
2023-04-23T11:40:11.203Z,1.48
2023-04-23T11:41:46.817Z,1.55
2023-04-23T11:43:22.184Z,1.52
2023-04-23T11:44:56.710Z,1.38
2023-04-23T11:46:30.145Z,1.55
2023-04-23T11:48:03.427Z,1.33
2023-04-23T11:49:38.306Z,2.55
2023-04-23T11:51:11.414Z,1.70
2023-04-23T11:52:44.970Z,1.52
2023-04-23T11:54:18.402Z,1.63
2023-04-23T11:55:51.783Z,1.52
2023-04-23T11:57:24.952Z,1.85
2023-04-23T11:59:00.414Z,1.25
2023-04-23T12:00:34.897Z,1.73
2023-04-23T12:02:08.360Z,1.70
2023-04-23T12:03:41.668Z,1.70
2023-04-23T12:05:15.027Z,1.38
2023-04-23T12:06:49.635Z,1.90
2023-04-23T12:08:23.383Z,1.70
2023-04-23T12:10:00.617Z,1.60
2023-04-23T12:11:36.121Z,1.58
2023-04-23T12:13:14.466Z,1.67
2023-04-23T12:14:47.647Z,1.25
2023-04-23T12:16:35.190Z,1.40
2023-04-23T12:18:11.967Z,1.67
2023-04-23T12:19:45.959Z,1.48
2023-04-23T12:21:19.264Z,1.67
2023-04-23T12:22:52.591Z,1.20
2023-04-23T12:24:26.925Z,1.50
2023-04-23T12:26:00.078Z,1.30
2023-04-23T12:27:33.987Z,1.60
2023-04-23T12:29:09.927Z,1.60
2023-04-23T12:30:46.248Z,1.45
2023-04-23T12:32:23.093Z,1.58
2023-04-23T12:34:00.691Z,1.40
2023-04-23T12:35:40.831Z,3.72
2023-04-23T12:37:13.964Z,4.45
2023-04-23T12:38:47.057Z,1.40
2023-04-23T12:40:20.582Z,1.40
2023-04-23T12:41:56.681Z,1.52
2023-04-23T12:43:29.857Z,1.40
2023-04-23T12:45:11.237Z,1.40
2023-04-23T12:46:44.611Z,1.25
2023-04-23T12:48:19.841Z,1.35
2023-04-23T12:49:55.617Z,1.67
2023-04-23T12:51:28.964Z,1.60
2023-04-23T12:53:02.271Z,1.83
2023-04-23T12:54:37.793Z,1.20
2023-04-23T12:56:11.008Z,1.50
2023-04-23T12:57:44.108Z,1.75
2023-04-23T12:59:17.427Z,2.30
2023-04-23T13:00:50.741Z,1.70
2023-04-23T13:02:26.046Z,1.67
2023-04-23T13:04:00.988Z,2.15
2023-04-23T13:05:34.207Z,2.22
2023-04-23T13:07:09.631Z,1.88
2023-04-23T13:08:42.722Z,1.27
2023-04-23T13:10:16.244Z,1.60
2023-04-23T13:11:50.337Z,1.30
2023-04-23T13:13:23.627Z,1.48
2023-04-23T13:14:57.782Z,1.30
2023-04-23T13:16:31.498Z,1.48
2023-04-23T13:18:05.010Z,1.17
2023-04-23T13:19:40.609Z,1.52
2023-04-23T13:21:13.867Z,1.38
2023-04-23T13:22:47.024Z,1.65
2023-04-23T13:24:20.334Z,1.70
2023-04-23T13:25:53.825Z,1.30
2023-04-23T13:27:28.855Z,1.85
2023-04-23T13:29:02.576Z,1.85
2023-04-23T13:30:36.336Z,1.20
2023-04-23T13:32:09.597Z,1.50
2023-04-23T13:33:44.186Z,1.08
2023-04-23T13:35:19.074Z,1.88
2023-04-23T13:36:52.704Z,1.40
2023-04-23T13:38:26.428Z,2.25
2023-04-23T13:39:59.540Z,1.42
2023-04-23T13:41:32.660Z,1.80
2023-04-23T13:43:06.428Z,3.00
2023-04-23T13:44:39.528Z,1.73
2023-04-23T13:46:14.329Z,1.80
2023-04-23T13:47:48.115Z,1.85
2023-04-23T13:49:20.846Z,2.00
2023-04-23T13:50:55.652Z,1.67
2023-04-23T13:52:28.807Z,1.38
2023-04-23T13:54:02.140Z,1.52
2023-04-23T13:55:35.729Z,1.88
2023-04-23T13:57:09.217Z,1.88
2023-04-23T13:58:45.345Z,2.03
2023-04-23T14:00:19.142Z,1.55
2023-04-23T14:01:52.574Z,1.40
2023-04-23T14:03:25.885Z,2.50
2023-04-23T14:04:58.705Z,1.83
2023-04-23T14:06:33.234Z,1.52
2023-04-23T14:08:07.205Z,1.83
2023-04-23T14:09:41.202Z,1.70
2023-04-23T14:11:14.584Z,1.33
2023-04-23T14:12:47.887Z,1.70
2023-04-23T14:14:21.543Z,1.88
2023-04-23T14:15:54.761Z,1.40
2023-04-23T14:17:27.999Z,1.20
2023-04-23T14:19:01.142Z,1.60
2023-04-23T14:20:34.661Z,1.73
2023-04-23T14:22:09.366Z,1.63
2023-04-23T14:23:51.634Z,1.67
2023-04-23T14:25:32.294Z,1.73
2023-04-23T14:27:06.105Z,1.55
2023-04-23T14:28:42.159Z,1.75
2023-04-23T14:30:18.084Z,1.70
2023-04-23T14:31:51.674Z,1.77
2023-04-23T14:33:25.473Z,1.50
2023-04-23T14:34:58.698Z,2.42
2023-04-23T14:36:31.866Z,6.22
2023-04-23T14:38:06.452Z,1.60
2023-04-23T14:39:42.738Z,1.20
2023-04-23T14:41:16.333Z,1.63
2023-04-23T14:42:50.050Z,1.10
2023-04-23T14:44:26.412Z,1.98
2023-04-23T14:46:00.019Z,2.67
2023-04-23T14:47:33.229Z,1.70
2023-04-23T14:49:05.390Z,1.50
2023-04-23T14:50:38.639Z,1.83
2023-04-23T14:52:12.365Z,1.80
2023-04-23T14:53:46.943Z,1.63
2023-04-23T14:55:20.093Z,1.70
2023-04-23T14:56:53.417Z,1.38
2023-04-23T14:58:27.232Z,1.85
2023-04-23T15:00:00.773Z,1.73
2023-04-23T15:01:33.982Z,1.75
2023-04-23T15:03:10.651Z,1.92
2023-04-23T15:04:44.791Z,2.10
2023-04-23T15:06:18.001Z,1.50
2023-04-23T15:07:53.297Z,2.00
2023-04-23T15:09:27.935Z,1.50
2023-04-23T15:11:01.463Z,1.30
2023-04-23T15:12:50.703Z,2.13
2023-04-23T15:14:27.401Z,1.60
2023-04-23T15:16:06.022Z,1.25
2023-04-23T15:17:39.636Z,2.00
2023-04-23T15:19:12.828Z,1.60
2023-04-23T15:20:46.137Z,1.45
2023-04-23T15:22:19.646Z,1.60
2023-04-23T15:23:56.383Z,2.13
2023-04-23T15:25:33.244Z,1.60
2023-04-23T15:27:08.394Z,1.30
2023-04-23T15:28:41.983Z,1.75
2023-04-23T15:30:15.500Z,1.40
2023-04-23T15:31:48.656Z,1.35
2023-04-23T15:33:22.122Z,1.10
2023-04-23T15:34:55.938Z,1.40
2023-04-23T15:36:29.194Z,2.20
2023-04-23T15:38:02.308Z,2.95
2023-04-23T15:39:35.540Z,2.90
2023-04-23T15:41:10.485Z,2.38
2023-04-23T15:42:44.454Z,1.20
2023-04-23T15:44:18.964Z,2.55
2023-04-23T15:45:54.058Z,1.80
2023-04-23T15:47:27.432Z,1.58
2023-04-23T15:49:01.080Z,1.60
2023-04-23T15:50:34.266Z,2.17
2023-04-23T15:52:07.749Z,1.83
2023-04-23T15:53:41.127Z,1.90
2023-04-23T15:55:14.406Z,2.30
2023-04-23T15:56:48.953Z,2.50
2023-04-23T15:58:21.806Z,2.03
2023-04-23T15:59:55.855Z,1.98
2023-04-23T16:01:29.334Z,2.40
2023-04-23T16:03:04.637Z,1.27
2023-04-23T16:04:38.782Z,1.40
2023-04-23T16:06:12.619Z,1.42
2023-04-23T16:07:45.890Z,2.03
2023-04-23T16:09:19.096Z,3.10
2023-04-23T16:10:52.480Z,2.08
2023-04-23T16:12:27.244Z,1.30
2023-04-23T16:14:00.412Z,1.55
2023-04-23T16:15:33.716Z,2.17
2023-04-23T16:17:07.055Z,1.52
2023-04-23T16:18:40.824Z,2.05
2023-04-23T16:20:14.407Z,2.17
2023-04-23T16:21:47.622Z,3.53
2023-04-23T16:23:20.946Z,2.42
2023-04-23T16:24:55.026Z,2.83
2023-04-23T16:26:29.190Z,2.65
2023-04-23T16:28:04.829Z,3.90
2023-04-23T16:29:38.432Z,2.38
2023-04-23T16:31:10.789Z,3.17
2023-04-23T16:32:44.050Z,3.30
2023-04-23T16:34:17.503Z,3.60
2023-04-23T16:35:50.765Z,2.55
2023-04-23T16:37:24.000Z,3.72
2023-04-23T16:38:57.161Z,5.32
2023-04-23T16:40:30.652Z,4.50
2023-04-23T16:42:03.822Z,4.18
2023-04-23T16:43:38.847Z,3.03
2023-04-23T16:45:12.715Z,2.67
2023-04-23T16:46:46.018Z,2.60
2023-04-23T16:48:20.039Z,3.55
2023-04-23T16:49:54.126Z,3.25
2023-04-23T16:51:28.459Z,2.50
2023-04-23T16:53:01.709Z,2.97
2023-04-23T16:54:36.862Z,3.95
2023-04-23T16:56:10.674Z,3.67
2023-04-23T16:57:43.890Z,4.30
2023-04-23T16:59:18.744Z,6.32
2023-04-23T17:00:51.218Z,8.07
2023-04-23T17:02:24.722Z,7.25
2023-04-23T17:03:58.262Z,6.10
2023-04-23T17:05:34.515Z,4.78
2023-04-23T17:07:07.910Z,4.20
2023-04-23T17:08:41.497Z,4.70
2023-04-23T17:10:15.565Z,4.18
2023-04-23T17:11:48.699Z,3.65
2023-04-23T17:13:22.135Z,3.03
2023-04-23T17:14:56.909Z,3.60
2023-04-23T17:16:30.089Z,2.40
2023-04-23T17:18:03.908Z,3.03
2023-04-23T17:19:37.734Z,2.78
2023-04-23T17:21:11.442Z,3.03
2023-04-23T17:22:44.633Z,4.43
2023-04-23T17:24:17.816Z,3.78
2023-04-23T17:25:51.250Z,2.72
2023-04-23T17:27:24.629Z,3.22
2023-04-23T17:28:57.878Z,2.60
2023-04-23T17:30:32.497Z,3.30
2023-04-23T17:32:06.176Z,4.30
2023-04-23T17:33:39.868Z,5.00
2023-04-23T17:35:13.340Z,4.80
2023-04-23T17:36:46.835Z,3.53
2023-04-23T17:38:21.110Z,3.30
2023-04-23T17:39:54.628Z,2.72
2023-04-23T17:41:28.082Z,2.97
2023-04-23T17:43:01.338Z,4.32
2023-04-23T17:44:35.338Z,8.30
2023-04-23T17:46:10.520Z,6.07
2023-04-23T17:47:43.771Z,10.65
2023-04-23T17:49:17.289Z,17.13
2023-04-23T17:50:50.863Z,6.90
2023-04-23T17:52:24.259Z,7.00
2023-04-23T17:53:57.554Z,6.30
2023-04-23T17:55:33.068Z,6.30
2023-04-23T17:57:09.967Z,5.75
2023-04-23T17:58:43.477Z,8.95
2023-04-23T18:00:18.040Z,6.28
2023-04-23T18:01:52.655Z,3.92
2023-04-23T18:03:31.741Z,4.68
2023-04-23T18:05:06.056Z,6.00
2023-04-23T18:06:39.224Z,4.82
2023-04-23T18:08:12.954Z,4.38
2023-04-23T18:09:46.598Z,4.25
2023-04-23T18:11:20.977Z,4.25
2023-04-23T18:12:54.668Z,3.70
2023-04-23T18:14:27.871Z,5.18
2023-04-23T18:16:01.398Z,5.70
2023-04-23T18:17:36.171Z,6.38
2023-04-23T18:19:09.880Z,6.72
2023-04-23T18:20:44.285Z,5.72
2023-04-23T18:22:18.068Z,6.20
2023-04-23T18:23:51.412Z,6.50
2023-04-23T18:25:25.418Z,5.68
2023-04-23T18:26:58.718Z,5.20
2023-04-23T18:28:33.062Z,3.78
2023-04-23T18:30:08.243Z,12.00
2023-04-23T18:31:41.452Z,14.02
2023-04-23T18:33:30.952Z,13.82
2023-04-23T18:35:04.608Z,13.50
2023-04-23T18:36:39.398Z,15.25
2023-04-23T18:38:25.510Z,18.60
2023-04-23T18:39:59.170Z,15.05
2023-04-23T18:41:32.753Z,9.45
2023-04-23T18:43:06.150Z,6.68
2023-04-23T18:44:39.521Z,15.90
2023-04-23T18:46:13.123Z,19.42
2023-04-23T18:47:52.480Z,18.90
2023-04-23T18:49:46.677Z,18.33
2023-04-23T18:51:27.886Z,15.55
2023-04-23T18:53:01.343Z,24.35
2023-04-23T18:54:34.507Z,17.27
2023-04-23T18:56:07.952Z,13.82
2023-04-23T18:57:41.085Z,13.25
2023-04-23T18:59:15.344Z,11.52
2023-04-23T19:00:48.584Z,8.02
2023-04-23T19:02:34.371Z,4.70
2023-04-23T19:04:08.898Z,6.35
2023-04-23T19:05:44.289Z,6.65
2023-04-23T19:07:17.584Z,5.13
2023-04-23T19:08:51.186Z,5.07
2023-04-23T19:10:24.373Z,4.43
2023-04-23T19:11:57.755Z,5.80
2023-04-23T19:13:30.981Z,6.82
2023-04-23T19:15:04.409Z,6.63
2023-04-23T19:16:37.676Z,7.30
2023-04-23T19:18:11.012Z,5.63
2023-04-23T19:19:44.322Z,4.30
2023-04-23T19:21:19.667Z,4.55
2023-04-23T19:22:52.837Z,5.18
2023-04-23T19:24:26.588Z,5.80
2023-04-23T19:25:59.773Z,5.93
2023-04-23T19:27:33.322Z,6.40
2023-04-23T19:29:06.486Z,5.72
2023-04-23T19:30:40.128Z,6.13
2023-04-23T19:32:13.295Z,4.88
2023-04-23T19:33:47.733Z,4.05
2023-04-23T19:35:21.021Z,4.35
2023-04-23T19:36:55.876Z,3.30
2023-04-23T19:38:29.067Z,3.17
2023-04-23T19:40:02.500Z,2.70
2023-04-23T19:41:35.728Z,3.70
2023-04-23T19:43:10.840Z,3.13
2023-04-23T19:44:48.030Z,3.67
2023-04-23T19:46:21.596Z,3.65
2023-04-23T19:47:54.844Z,2.70
2023-04-23T19:49:28.096Z,3.25
2023-04-23T19:51:01.241Z,3.30
2023-04-23T19:52:36.288Z,3.25
2023-04-23T19:54:09.461Z,3.78
2023-04-23T19:55:42.688Z,12.13
2023-04-23T19:57:15.960Z,6.95
2023-04-23T19:58:50.728Z,8.55
2023-04-23T20:00:24.985Z,6.85
2023-04-23T20:01:58.126Z,5.10
2023-04-23T20:03:34.667Z,4.28
2023-04-23T20:05:10.367Z,3.72
2023-04-23T20:06:43.633Z,3.25
2023-04-23T20:08:26.361Z,4.03
2023-04-23T20:09:59.616Z,4.40
2023-04-23T20:11:33.134Z,3.28
2023-04-23T20:13:06.436Z,3.65
2023-04-23T20:14:39.883Z,3.03
2023-04-23T20:16:13.161Z,2.88
2023-04-23T20:17:46.737Z,6.60
2023-04-23T20:19:19.948Z,8.07
2023-04-23T20:20:53.348Z,6.53
2023-04-23T20:22:26.717Z,5.88
2023-04-23T20:24:01.494Z,6.70
2023-04-23T20:25:36.382Z,7.32
2023-04-23T20:27:09.790Z,11.55
2023-04-23T20:28:42.971Z,10.32
2023-04-23T20:30:16.682Z,8.55
2023-04-23T20:31:50.046Z,6.70
2023-04-23T20:33:23.674Z,3.38
2023-04-23T20:34:58.049Z,3.88
2023-04-23T20:36:33.366Z,3.47
2023-04-23T20:38:06.817Z,3.17
2023-04-23T20:39:42.125Z,2.47
2023-04-23T20:41:15.547Z,2.67
2023-04-23T20:42:51.716Z,2.75
2023-04-23T20:44:25.888Z,2.67
2023-04-23T20:46:00.193Z,2.90
2023-04-23T20:47:34.441Z,3.17
2023-04-23T20:49:08.959Z,3.92
2023-04-23T20:50:42.184Z,5.78
2023-04-23T20:52:16.070Z,4.63
2023-04-23T20:53:49.334Z,5.57
2023-04-23T20:55:24.413Z,6.35